createdAt,value
2023-06-30T00:00:18.604Z,2.50
2023-06-30T00:02:49.226Z,2.95
2023-06-30T00:05:16.326Z,2.83
2023-06-30T00:07:46.727Z,2.72
2023-06-30T00:10:13.547Z,3.08
2023-06-30T00:12:40.313Z,2.97
2023-06-30T00:15:07.361Z,2.75
2023-06-30T00:17:34.264Z,3.05
2023-06-30T00:20:01.236Z,2.53
2023-06-30T00:22:28.152Z,3.03
2023-06-30T00:24:56.828Z,3.25
2023-06-30T00:27:24.150Z,2.63
2023-06-30T00:29:50.998Z,3.30
2023-06-30T00:32:20.149Z,2.80
2023-06-30T00:34:47.114Z,2.88
2023-06-30T00:37:15.433Z,3.10
2023-06-30T00:39:42.288Z,3.13
2023-06-30T00:42:09.567Z,3.63
2023-06-30T00:44:36.622Z,3.40
2023-06-30T00:47:03.932Z,2.95
2023-06-30T00:49:32.352Z,3.42
2023-06-30T00:52:01.124Z,3.08
2023-06-30T00:54:28.615Z,3.33
2023-06-30T00:56:55.843Z,3.00
2023-06-30T00:59:23.128Z,3.22
2023-06-30T01:01:59.947Z,3.08
2023-06-30T01:04:32.833Z,3.45
2023-06-30T01:07:07.924Z,3.40
2023-06-30T01:09:39.992Z,3.60
2023-06-30T01:12:08.705Z,4.03
2023-06-30T01:14:37.596Z,3.83
2023-06-30T01:17:06.967Z,4.20
2023-06-30T01:19:45.947Z,3.85
2023-06-30T01:22:20.816Z,4.03
2023-06-30T01:24:50.490Z,4.07
2023-06-30T01:27:17.609Z,4.75
2023-06-30T01:29:44.896Z,4.55
2023-06-30T01:32:18.081Z,4.50
2023-06-30T01:34:46.381Z,4.10
2023-06-30T01:37:14.790Z,5.20
2023-06-30T01:39:41.824Z,5.00
2023-06-30T01:42:09.545Z,5.20
2023-06-30T01:44:37.626Z,4.90
2023-06-30T01:47:05.894Z,5.32
2023-06-30T01:49:34.418Z,5.13
2023-06-30T01:52:02.404Z,6.57
2023-06-30T01:54:29.598Z,6.22
2023-06-30T01:56:56.518Z,6.07
2023-06-30T01:59:23.692Z,6.40
2023-06-30T02:01:50.551Z,6.55
2023-06-30T02:04:17.703Z,8.15
2023-06-30T02:06:47.785Z,6.75
2023-06-30T02:09:14.649Z,8.02
2023-06-30T02:11:41.463Z,7.60
2023-06-30T02:14:08.229Z,6.40
2023-06-30T02:16:35.006Z,6.53
2023-06-30T02:19:01.821Z,7.10
2023-06-30T02:21:28.608Z,7.30
2023-06-30T02:23:55.579Z,6.70
2023-06-30T02:26:22.425Z,7.50
2023-06-30T02:28:50.054Z,7.40
2023-06-30T02:31:17.769Z,7.63
2023-06-30T02:33:44.833Z,6.97
2023-06-30T02:36:11.801Z,7.50
2023-06-30T02:38:38.579Z,7.03
2023-06-30T02:41:05.387Z,7.70
2023-06-30T02:43:32.136Z,7.43
2023-06-30T02:45:59.498Z,7.28
2023-06-30T02:48:27.994Z,7.78
2023-06-30T02:50:54.965Z,8.00
2023-06-30T02:53:21.798Z,7.40
2023-06-30T02:55:49.158Z,6.45
2023-06-30T02:58:16.370Z,6.78
2023-06-30T03:00:43.164Z,7.20
2023-06-30T03:03:11.054Z,7.60
2023-06-30T03:05:38.879Z,8.40
2023-06-30T03:08:07.895Z,7.40
2023-06-30T03:10:34.754Z,8.05
2023-06-30T03:13:01.565Z,7.50
2023-06-30T03:15:29.076Z,8.85
2023-06-30T03:17:56.753Z,8.90
2023-06-30T03:20:24.755Z,9.18
2023-06-30T03:22:54.260Z,9.07
2023-06-30T03:25:21.228Z,9.77
2023-06-30T03:27:48.520Z,9.82
2023-06-30T03:30:17.325Z,9.95
2023-06-30T03:32:46.731Z,10.13
2023-06-30T03:35:16.212Z,10.57
2023-06-30T03:37:43.004Z,9.95
2023-06-30T03:40:10.995Z,10.65
2023-06-30T03:42:38.202Z,11.38
2023-06-30T03:45:05.913Z,11.18
2023-06-30T03:47:33.941Z,11.98
2023-06-30T03:50:00.912Z,12.38
2023-06-30T03:52:27.804Z,12.85
2023-06-30T03:54:54.962Z,13.45
2023-06-30T03:57:21.795Z,13.18
2023-06-30T03:59:48.620Z,13.68
2023-06-30T04:02:15.507Z,12.27
2023-06-30T04:04:42.350Z,13.32
2023-06-30T04:07:09.317Z,13.02
2023-06-30T04:09:36.484Z,14.18
2023-06-30T04:12:03.754Z,13.27
2023-06-30T04:14:30.659Z,12.80
2023-06-30T04:16:59.305Z,14.30
2023-06-30T04:19:26.420Z,14.05
2023-06-30T04:21:53.272Z,13.82
2023-06-30T04:24:20.888Z,13.88
2023-06-30T04:26:47.656Z,14.65
2023-06-30T04:29:16.514Z,14.57
2023-06-30T04:31:44.090Z,14.48
2023-06-30T04:34:11.010Z,14.88
2023-06-30T04:36:37.820Z,14.52
2023-06-30T04:39:04.738Z,14.48
2023-06-30T04:41:31.665Z,15.05
2023-06-30T04:43:58.567Z,15.40
2023-06-30T04:46:26.601Z,13.90
2023-06-30T04:48:54.286Z,14.10
2023-06-30T04:51:21.110Z,14.57
2023-06-30T04:53:47.920Z,14.88
2023-06-30T04:56:14.714Z,15.15
2023-06-30T04:58:41.466Z,14.77
2023-06-30T05:01:08.282Z,14.93
2023-06-30T05:03:35.222Z,14.75
2023-06-30T05:06:02.041Z,16.20
2023-06-30T05:08:28.906Z,15.68
2023-06-30T05:10:55.709Z,15.50
2023-06-30T05:13:22.522Z,15.15
2023-06-30T05:15:49.763Z,16.60
2023-06-30T05:18:16.851Z,14.55
2023-06-30T05:20:43.752Z,15.90
2023-06-30T05:23:10.540Z,16.38
2023-06-30T05:25:38.071Z,17.17
2023-06-30T05:28:05.036Z,15.55
2023-06-30T05:30:31.882Z,15.88
2023-06-30T05:32:58.758Z,15.77
2023-06-30T05:35:25.536Z,16.23
2023-06-30T05:37:52.409Z,16.23
2023-06-30T05:40:19.343Z,16.35
2023-06-30T05:42:46.138Z,17.63
2023-06-30T05:45:12.932Z,16.42
2023-06-30T05:47:39.791Z,16.33
2023-06-30T05:50:07.293Z,16.48
2023-06-30T05:52:34.151Z,15.88
2023-06-30T05:55:00.989Z,17.25
2023-06-30T05:57:30.695Z,16.20
2023-06-30T05:59:57.447Z,16.17
2023-06-30T06:02:24.630Z,16.05
2023-06-30T06:04:52.928Z,15.02
2023-06-30T06:07:20.273Z,15.30
2023-06-30T06:09:47.203Z,16.08
2023-06-30T06:12:14.006Z,15.73
2023-06-30T06:14:41.092Z,15.15
2023-06-30T06:17:08.115Z,15.60
2023-06-30T06:19:35.077Z,15.60
2023-06-30T06:22:01.954Z,15.18
2023-06-30T06:24:28.994Z,14.35
2023-06-30T06:26:55.810Z,14.68
2023-06-30T06:29:25.460Z,15.60
2023-06-30T06:31:55.087Z,14.65
2023-06-30T06:34:23.117Z,14.70
2023-06-30T06:36:49.981Z,15.23
2023-06-30T06:39:16.849Z,14.77
2023-06-30T06:41:43.705Z,15.65
2023-06-30T06:44:16.201Z,15.55
2023-06-30T06:46:44.647Z,15.38
2023-06-30T06:49:11.821Z,15.40
2023-06-30T06:51:38.677Z,15.85
2023-06-30T06:54:05.464Z,15.52
2023-06-30T06:56:32.465Z,16.08
2023-06-30T06:58:59.483Z,15.80
2023-06-30T07:01:26.310Z,15.50
2023-06-30T07:03:53.203Z,14.95
2023-06-30T07:06:22.485Z,15.43
2023-06-30T07:08:50.200Z,14.73
2023-06-30T07:11:19.168Z,14.05
2023-06-30T07:13:46.003Z,14.73
2023-06-30T07:16:12.912Z,15.77
2023-06-30T07:18:39.749Z,14.77
2023-06-30T07:21:06.954Z,14.82
2023-06-30T07:23:34.190Z,14.32
2023-06-30T07:26:01.063Z,15.57
2023-06-30T07:28:27.932Z,14.40
2023-06-30T07:30:54.786Z,12.98
2023-06-30T07:33:21.638Z,14.70
2023-06-30T07:35:48.947Z,13.10
2023-06-30T07:38:16.098Z,14.30
2023-06-30T07:43:12.665Z,14.32
2023-06-30T07:45:39.518Z,14.07
2023-06-30T07:48:06.679Z,14.60
2023-06-30T07:50:33.617Z,14.00
2023-06-30T07:53:02.479Z,14.18
2023-06-30T07:55:29.395Z,13.75
2023-06-30T07:57:56.302Z,14.32
2023-06-30T08:00:29.924Z,14.95
2023-06-30T08:02:56.919Z,14.77
2023-06-30T08:05:24.256Z,14.52
2023-06-30T08:07:51.835Z,15.02
2023-06-30T08:10:19.900Z,15.40
2023-06-30T08:12:46.985Z,15.65
2023-06-30T08:15:13.953Z,15.70
2023-06-30T08:17:56.547Z,16.02
2023-06-30T08:20:28.731Z,15.38
2023-06-30T08:22:55.966Z,15.80
2023-06-30T08:25:24.507Z,15.50
2023-06-30T08:27:52.443Z,15.85
2023-06-30T08:30:22.053Z,16.67
2023-06-30T08:32:50.938Z,16.05
2023-06-30T08:35:17.866Z,15.93
2023-06-30T08:37:44.827Z,15.00
2023-06-30T08:40:12.131Z,18.23
2023-06-30T08:42:44.061Z,17.02
2023-06-30T08:45:13.731Z,16.50
2023-06-30T08:47:41.018Z,16.45
2023-06-30T08:50:09.251Z,16.67
2023-06-30T08:52:36.368Z,16.05
2023-06-30T08:55:04.185Z,16.50
2023-06-30T08:57:32.635Z,16.00
2023-06-30T08:59:59.404Z,16.52
2023-06-30T09:02:27.541Z,16.17
2023-06-30T09:04:56.051Z,16.95
2023-06-30T09:07:39.972Z,16.65
2023-06-30T09:10:10.400Z,15.88
2023-06-30T09:12:40.464Z,17.83
2023-06-30T09:15:10.219Z,15.68
2023-06-30T09:17:37.137Z,16.02
2023-06-30T09:20:04.209Z,15.35
2023-06-30T09:22:52.416Z,14.98
2023-06-30T09:25:26.974Z,15.30
2023-06-30T09:27:55.024Z,13.82
2023-06-30T09:30:35.920Z,14.18
2023-06-30T09:33:03.216Z,12.93
2023-06-30T09:35:41.514Z,14.18
2023-06-30T09:38:12.086Z,14.23
2023-06-30T09:40:38.948Z,14.15
2023-06-30T09:43:06.344Z,13.10
2023-06-30T09:45:33.190Z,12.77
2023-06-30T09:48:00.216Z,13.40
2023-06-30T09:50:28.765Z,11.75
2023-06-30T09:52:55.774Z,11.15
2023-06-30T09:55:22.597Z,10.50
2023-06-30T09:57:49.319Z,11.13
2023-06-30T10:00:33.642Z,10.43
2023-06-30T10:03:07.379Z,8.95
2023-06-30T10:05:34.447Z,10.13
2023-06-30T10:08:02.468Z,11.07
2023-06-30T10:10:30.241Z,10.40
2023-06-30T10:12:59.796Z,9.88
2023-06-30T10:15:27.778Z,9.80
2023-06-30T10:17:56.327Z,9.60
2023-06-30T10:20:33.884Z,9.40
2023-06-30T10:23:06.250Z,10.18
2023-06-30T10:25:37.650Z,9.98
2023-06-30T10:28:05.916Z,11.05
2023-06-30T10:30:33.446Z,10.18
2023-06-30T10:33:00.379Z,9.98
2023-06-30T10:35:28.885Z,9.73
2023-06-30T10:37:57.241Z,11.40
2023-06-30T10:40:26.081Z,10.45
2023-06-30T10:42:55.309Z,10.80
2023-06-30T10:45:27.521Z,9.82
2023-06-30T10:47:54.418Z,9.93
2023-06-30T10:50:21.209Z,10.75
2023-06-30T10:52:55.396Z,10.40
2023-06-30T10:55:24.057Z,10.27
2023-06-30T10:57:53.009Z,10.25
2023-06-30T11:00:22.854Z,10.18
2023-06-30T11:02:58.745Z,10.35
2023-06-30T11:05:32.726Z,9.48
2023-06-30T11:08:02.243Z,10.77
2023-06-30T11:10:34.326Z,11.70
2023-06-30T11:13:10.703Z,11.60
2023-06-30T11:15:44.291Z,11.90
2023-06-30T11:18:23.270Z,11.02
2023-06-30T11:21:06.710Z,11.45
2023-06-30T11:23:37.239Z,11.60
2023-06-30T11:26:19.151Z,12.15
2023-06-30T11:28:49.760Z,12.43
2023-06-30T11:31:17.506Z,13.23
2023-06-30T11:33:45.593Z,14.20
2023-06-30T11:36:17.524Z,13.77
2023-06-30T11:38:53.513Z,13.68
2023-06-30T11:41:23.041Z,14.30
2023-06-30T11:43:55.050Z,14.18
2023-06-30T11:46:22.936Z,13.80
2023-06-30T11:48:50.624Z,15.05
2023-06-30T11:51:20.496Z,14.82
2023-06-30T11:53:48.152Z,15.38
2023-06-30T11:56:15.342Z,14.30
2023-06-30T11:58:52.580Z,14.18
2023-06-30T12:01:22.656Z,14.48
2023-06-30T12:04:19.188Z,14.23
2023-06-30T12:06:47.014Z,15.60
2023-06-30T12:09:14.408Z,14.85
2023-06-30T12:11:46.212Z,14.98
2023-06-30T12:14:16.770Z,15.55
2023-06-30T12:16:51.123Z,16.65
2023-06-30T12:19:19.611Z,15.60
2023-06-30T12:22:02.106Z,14.88
2023-06-30T12:24:36.231Z,14.23
2023-06-30T12:27:10.042Z,16.35
2023-06-30T12:29:37.864Z,14.80
2023-06-30T12:32:15.399Z,15.70
2023-06-30T12:34:42.985Z,15.32
2023-06-30T12:37:09.888Z,14.90
2023-06-30T12:39:36.833Z,15.20
2023-06-30T12:42:03.927Z,15.32
2023-06-30T12:44:31.791Z,15.23
2023-06-30T12:47:06.815Z,16.83
2023-06-30T12:49:35.165Z,15.77
2023-06-30T12:52:03.855Z,15.52
2023-06-30T12:54:31.226Z,16.08
2023-06-30T12:56:58.180Z,16.80
2023-06-30T12:59:24.946Z,16.02
2023-06-30T13:01:51.858Z,16.23
2023-06-30T13:04:18.653Z,16.65
2023-06-30T13:06:45.479Z,17.55
2023-06-30T13:09:12.326Z,16.15
2023-06-30T13:11:39.286Z,16.35
2023-06-30T13:14:06.088Z,14.88
2023-06-30T13:16:32.976Z,15.82
2023-06-30T13:19:00.114Z,14.93
2023-06-30T13:21:27.128Z,15.70
2023-06-30T13:23:54.042Z,17.10
2023-06-30T13:26:21.157Z,16.52
2023-06-30T13:28:48.567Z,16.23
2023-06-30T13:31:15.360Z,16.75
2023-06-30T13:33:42.268Z,18.17
2023-06-30T13:36:09.722Z,17.02
2023-06-30T13:38:36.575Z,15.50
2023-06-30T13:41:03.539Z,13.63
2023-06-30T13:43:30.530Z,15.15
2023-06-30T13:45:59.813Z,13.73
2023-06-30T13:48:26.657Z,11.50
2023-06-30T13:50:53.494Z,10.85
2023-06-30T13:53:20.769Z,10.88
2023-06-30T13:55:48.119Z,11.95
2023-06-30T13:58:15.115Z,10.55
2023-06-30T14:00:42.128Z,11.25
2023-06-30T14:03:09.277Z,11.00
2023-06-30T14:05:36.480Z,11.07
2023-06-30T14:08:03.348Z,11.35
2023-06-30T14:10:30.614Z,11.70
2023-06-30T14:12:57.535Z,11.95
2023-06-30T14:15:24.495Z,11.70
2023-06-30T14:17:51.453Z,11.20
2023-06-30T14:20:18.283Z,11.93
2023-06-30T14:22:45.185Z,10.75
2023-06-30T14:25:23.545Z,10.55
2023-06-30T14:27:51.485Z,10.25
2023-06-30T14:30:18.603Z,10.55
2023-06-30T14:32:47.144Z,9.75
2023-06-30T14:35:14.296Z,10.90
2023-06-30T14:37:41.115Z,10.80
2023-06-30T14:40:08.653Z,10.25
2023-06-30T14:42:35.682Z,10.52
2023-06-30T14:45:02.600Z,10.82
2023-06-30T14:47:31.120Z,10.45
2023-06-30T14:49:58.834Z,10.25
2023-06-30T14:52:26.189Z,10.05
2023-06-30T14:54:53.066Z,9.10
2023-06-30T14:57:20.097Z,9.65
2023-06-30T14:59:47.020Z,9.75
2023-06-30T15:02:15.017Z,10.60
2023-06-30T15:04:41.991Z,11.75
2023-06-30T15:07:08.839Z,10.90
2023-06-30T15:09:35.667Z,12.57
2023-06-30T15:12:02.456Z,11.40
2023-06-30T15:14:29.125Z,10.75
2023-06-30T15:16:55.909Z,11.00
2023-06-30T15:19:22.699Z,9.80
2023-06-30T15:21:50.732Z,9.48
2023-06-30T15:24:17.719Z,7.85
2023-06-30T15:26:44.917Z,8.00
2023-06-30T15:29:15.252Z,8.95
2023-06-30T15:31:42.852Z,8.35
2023-06-30T15:34:09.643Z,7.38
2023-06-30T15:36:36.443Z,7.95
2023-06-30T15:39:04.541Z,9.20
2023-06-30T15:41:31.401Z,8.73
2023-06-30T15:43:58.310Z,8.07
2023-06-30T15:46:26.371Z,8.68
2023-06-30T15:48:53.110Z,8.75
2023-06-30T15:51:21.248Z,8.90
2023-06-30T15:53:48.645Z,9.25
2023-06-30T15:56:15.732Z,9.52
2023-06-30T15:58:42.508Z,9.55
2023-06-30T16:01:09.471Z,9.82
2023-06-30T16:03:38.875Z,9.65
2023-06-30T16:06:05.959Z,9.80
2023-06-30T16:08:33.318Z,10.88
2023-06-30T16:11:00.124Z,11.00
2023-06-30T16:13:26.908Z,11.75
2023-06-30T16:15:53.910Z,11.82
2023-06-30T16:18:21.024Z,11.93
2023-06-30T16:20:47.879Z,13.15
2023-06-30T16:23:14.738Z,12.70
2023-06-30T16:25:41.582Z,11.85
2023-06-30T16:28:08.678Z,11.90
2023-06-30T16:30:37.416Z,12.13
2023-06-30T16:33:04.630Z,12.35
2023-06-30T16:35:32.307Z,12.75
2023-06-30T16:37:59.299Z,12.85
2023-06-30T16:40:26.468Z,11.65
2023-06-30T16:42:54.187Z,12.18
2023-06-30T16:45:21.188Z,12.45
2023-06-30T16:47:48.297Z,12.20
2023-06-30T16:50:16.540Z,12.63
2023-06-30T16:52:44.138Z,13.35
2023-06-30T16:55:12.350Z,11.93
2023-06-30T16:57:40.044Z,12.18
2023-06-30T17:00:09.206Z,13.70
2023-06-30T17:02:36.317Z,12.88
2023-06-30T17:05:04.060Z,12.27
2023-06-30T17:07:30.963Z,13.23
2023-06-30T17:09:57.705Z,13.55
2023-06-30T17:12:24.607Z,12.48
2023-06-30T17:14:51.491Z,14.48
2023-06-30T17:17:18.441Z,14.15
2023-06-30T17:19:45.437Z,14.90
2023-06-30T17:22:12.263Z,15.18
2023-06-30T17:24:39.099Z,16.58
2023-06-30T17:27:06.322Z,15.60
2023-06-30T17:29:33.134Z,16.35
2023-06-30T17:31:59.928Z,16.17
2023-06-30T17:34:26.715Z,15.98
2023-06-30T17:37:01.485Z,16.40
2023-06-30T17:39:28.429Z,16.98
2023-06-30T17:41:55.149Z,16.77
2023-06-30T17:44:21.977Z,16.98
2023-06-30T17:46:48.828Z,17.33
2023-06-30T17:49:29.216Z,16.85
2023-06-30T17:51:56.210Z,16.80
2023-06-30T17:54:26.664Z,17.65
2023-06-30T17:56:53.447Z,18.05
2023-06-30T17:59:20.287Z,17.25
2023-06-30T18:01:47.388Z,18.60
2023-06-30T18:04:15.059Z,17.58
2023-06-30T18:07:02.837Z,17.05
2023-06-30T18:09:30.668Z,17.75
2023-06-30T18:11:58.939Z,18.58
2023-06-30T18:14:27.225Z,17.88
2023-06-30T18:16:54.057Z,17.77
2023-06-30T18:19:22.806Z,17.20
2023-06-30T18:21:51.438Z,17.70
2023-06-30T18:24:19.145Z,18.40
2023-06-30T18:26:50.214Z,18.70
2023-06-30T18:29:22.694Z,18.58
2023-06-30T18:31:54.604Z,17.77
2023-06-30T18:34:22.347Z,18.33
2023-06-30T18:36:49.154Z,18.42
2023-06-30T18:39:17.778Z,18.75
2023-06-30T18:41:44.644Z,18.27
2023-06-30T18:44:11.468Z,19.45
2023-06-30T18:46:38.370Z,19.15
2023-06-30T18:49:07.728Z,19.63
2023-06-30T18:51:36.984Z,19.33
2023-06-30T18:54:03.966Z,19.90
2023-06-30T18:56:30.841Z,19.63
2023-06-30T18:59:02.523Z,18.80
2023-06-30T19:01:30.088Z,19.80
2023-06-30T19:03:57.765Z,20.23
2023-06-30T19:06:25.843Z,18.85
2023-06-30T19:08:56.434Z,20.27
2023-06-30T19:11:23.889Z,19.60
2023-06-30T19:13:51.210Z,19.05
2023-06-30T19:16:18.421Z,21.08
2023-06-30T19:18:45.565Z,20.25
2023-06-30T19:21:12.540Z,19.83
2023-06-30T19:23:41.880Z,20.38
2023-06-30T19:26:09.970Z,19.83
2023-06-30T19:28:37.483Z,20.08
2023-06-30T19:31:04.374Z,20.35
2023-06-30T19:33:32.565Z,19.27
2023-06-30T19:35:59.499Z,19.85
2023-06-30T19:38:26.632Z,19.48
2023-06-30T19:40:55.219Z,18.77
2023-06-30T19:43:22.331Z,19.13
2023-06-30T19:45:50.149Z,18.08
2023-06-30T19:48:17.728Z,19.98
2023-06-30T19:50:44.646Z,19.40
2023-06-30T19:53:11.475Z,19.55
2023-06-30T19:55:38.255Z,19.30
2023-06-30T19:58:06.100Z,18.80
2023-06-30T20:00:33.895Z,20.00
2023-06-30T20:03:01.333Z,20.27
2023-06-30T20:05:28.267Z,19.38
2023-06-30T20:07:56.264Z,19.50
2023-06-30T20:10:23.221Z,18.98
2023-06-30T20:12:50.949Z,19.58
2023-06-30T20:15:18.145Z,21.58
2023-06-30T20:17:45.364Z,20.00
2023-06-30T20:23:02.239Z,20.10
2023-06-30T20:25:29.080Z,20.50
2023-06-30T20:27:55.881Z,20.60
2023-06-30T20:30:22.748Z,21.90
2023-06-30T20:32:49.990Z,20.90
2023-06-30T20:35:20.046Z,19.70
2023-06-30T20:37:47.670Z,21.65
2023-06-30T20:40:14.474Z,22.40
2023-06-30T20:42:41.543Z,21.85
2023-06-30T20:45:08.716Z,21.73
2023-06-30T20:47:36.228Z,21.52
2023-06-30T20:50:04.385Z,22.67
2023-06-30T20:52:31.536Z,20.75
2023-06-30T20:54:58.278Z,19.75
2023-06-30T20:57:25.074Z,21.02
2023-06-30T20:59:51.870Z,19.98
2023-06-30T21:02:18.706Z,20.80
2023-06-30T21:04:45.501Z,20.45
2023-06-30T21:07:12.337Z,20.42
2023-06-30T21:09:39.107Z,20.83
2023-06-30T21:12:06.409Z,20.30
2023-06-30T21:14:33.295Z,19.80
2023-06-30T21:17:00.071Z,19.80
2023-06-30T21:19:27.078Z,20.23
2023-06-30T21:21:54.153Z,19.40
2023-06-30T21:24:20.954Z,21.10
2023-06-30T21:26:47.712Z,19.92
2023-06-30T21:29:14.457Z,20.05
2023-06-30T21:31:41.223Z,18.73
2023-06-30T21:34:08.013Z,19.45
2023-06-30T21:36:38.248Z,18.17
2023-06-30T21:39:06.694Z,18.30
2023-06-30T21:41:33.693Z,19.98
2023-06-30T21:44:00.515Z,20.92
2023-06-30T21:46:27.519Z,18.65
2023-06-30T21:48:54.396Z,20.25
2023-06-30T21:51:21.268Z,24.92
2023-06-30T21:53:48.049Z,24.27
2023-06-30T21:56:14.846Z,27.10
2023-06-30T21:58:41.721Z,29.85
2023-06-30T22:01:08.645Z,28.50
2023-06-30T22:03:35.558Z,29.92
2023-06-30T22:06:02.769Z,27.45
2023-06-30T22:08:29.924Z,28.33
2023-06-30T22:10:58.716Z,30.80
2023-06-30T22:13:25.850Z,31.40
2023-06-30T22:15:52.916Z,32.92
2023-06-30T22:18:19.824Z,33.10
2023-06-30T22:20:46.730Z,33.92
2023-06-30T22:23:13.836Z,33.28
2023-06-30T22:25:40.848Z,33.55
2023-06-30T22:28:07.798Z,33.90
2023-06-30T22:30:34.720Z,31.70
2023-06-30T22:33:01.590Z,32.40
2023-06-30T22:35:28.479Z,33.60
2023-06-30T22:37:55.277Z,32.33
2023-06-30T22:40:22.441Z,32.35
2023-06-30T22:42:49.638Z,32.70
2023-06-30T22:45:16.677Z,33.88
2023-06-30T22:47:44.223Z,35.28
2023-06-30T22:50:11.277Z,33.22
2023-06-30T22:52:39.811Z,32.65
2023-06-30T22:55:10.491Z,33.45
2023-06-30T22:57:37.617Z,32.92
2023-06-30T23:00:06.022Z,32.15
2023-06-30T23:02:33.164Z,32.13
2023-06-30T23:05:00.132Z,33.88
2023-06-30T23:07:27.151Z,33.22
2023-06-30T23:09:54.053Z,33.38
2023-06-30T23:12:20.824Z,33.03
2023-06-30T23:14:47.625Z,32.90
2023-06-30T23:17:16.895Z,34.80
2023-06-30T23:19:49.925Z,33.58
2023-06-30T23:22:18.013Z,33.33
2023-06-30T23:24:49.722Z,31.70
2023-06-30T23:27:17.773Z,33.15
2023-06-30T23:29:50.557Z,30.85
2023-06-30T23:32:20.434Z,32.42
2023-06-30T23:34:48.480Z,32.05
2023-06-30T23:37:17.876Z,30.88
2023-06-30T23:39:45.633Z,32.25
2023-06-30T23:42:12.465Z,31.85
2023-06-30T23:44:39.291Z,32.63
2023-06-30T23:47:15.422Z,32.40
2023-06-30T23:49:42.635Z,31.05
2023-06-30T23:52:09.937Z,30.13
2023-06-30T23:54:36.796Z,31.65
2023-06-30T23:57:03.981Z,30.98
2023-06-30T23:59:30.783Z,29.75
